createdAt,value
2022-10-15T00:00:47.451Z,16.7143
2022-10-15T00:01:47.546Z,16.9286
2022-10-15T00:02:47.535Z,17.4286
2022-10-15T00:03:47.598Z,16.8571
2022-10-15T00:04:47.578Z,17
2022-10-15T00:05:47.625Z,17
2022-10-15T00:06:47.637Z,17.2143
2022-10-15T00:07:47.696Z,16.2143
2022-10-15T00:08:47.711Z,17.2143
2022-10-15T00:09:47.743Z,16.3571
2022-10-15T00:10:47.783Z,17.4286
2022-10-15T00:11:47.813Z,17.1429
2022-10-15T00:12:47.871Z,16.6429
2022-10-15T00:13:47.888Z,17.1429
2022-10-15T00:14:47.925Z,17.1429
2022-10-15T00:15:47.950Z,16.2143
2022-10-15T00:16:47.982Z,17
2022-10-15T00:17:48.042Z,16.9286
2022-10-15T00:18:48.079Z,16.3571
2022-10-15T00:19:48.094Z,16.4286
2022-10-15T00:20:48.125Z,15.8571
2022-10-15T00:21:48.249Z,16.4286
2022-10-15T00:22:48.195Z,16.3571
2022-10-15T00:23:48.238Z,16.5
2022-10-15T00:24:48.291Z,15.9286
2022-10-15T00:25:48.309Z,16.2143
2022-10-15T00:26:48.340Z,16.4286
2022-10-15T00:27:48.378Z,16.4286
2022-10-15T00:28:48.450Z,17.3571
2022-10-15T00:29:48.456Z,15.4286
2022-10-15T00:30:48.476Z,16.6429
2022-10-15T00:31:48.506Z,16.8571
2022-10-15T00:32:48.529Z,16.8571
2022-10-15T00:33:48.571Z,15.5
2022-10-15T00:34:48.607Z,16.2143
2022-10-15T00:35:48.640Z,15.8571
2022-10-15T00:36:48.669Z,15.7143
2022-10-15T00:37:48.726Z,16.5
2022-10-15T00:38:48.764Z,15.8571
2022-10-15T00:39:48.865Z,16.7143
2022-10-15T00:40:48.824Z,16.2143
2022-10-15T00:41:48.837Z,16.5
2022-10-15T00:42:48.863Z,16.2143
2022-10-15T00:43:48.905Z,16
2022-10-15T00:44:48.935Z,15.8571
2022-10-15T00:45:48.992Z,15.9286
2022-10-15T00:46:49.010Z,15.4286
2022-10-15T00:47:49.033Z,15.6429
2022-10-15T00:48:49.075Z,15.2143
2022-10-15T00:49:49.097Z,15.7143
2022-10-15T00:50:49.150Z,15.7143
2022-10-15T00:51:49.171Z,14.6429
2022-10-15T00:52:49.204Z,15.6429
2022-10-15T00:53:49.257Z,15.2143
2022-10-15T00:54:49.266Z,14.8571
2022-10-15T00:55:49.303Z,14.9286
2022-10-15T00:56:49.338Z,14.6429
2022-10-15T00:57:49.364Z,15.5
2022-10-15T00:58:49.416Z,15
2022-10-15T00:59:49.432Z,15.5
2022-10-15T01:00:49.542Z,15.8571
2022-10-15T01:01:49.498Z,16
2022-10-15T01:02:49.535Z,15.2143
2022-10-15T01:03:49.591Z,16.2143
2022-10-15T01:04:49.601Z,16.1429
2022-10-15T01:05:49.651Z,15.2143
2022-10-15T01:06:49.662Z,15.4286
2022-10-15T01:07:49.702Z,15.5
2022-10-15T01:08:49.733Z,16
2022-10-15T01:09:49.764Z,15.9286
2022-10-15T01:10:49.832Z,15.4286
2022-10-15T01:11:49.836Z,15.5
2022-10-15T01:12:49.863Z,15.5
2022-10-15T01:13:49.893Z,15.2143
2022-10-15T01:14:49.918Z,16.6429
2022-10-15T01:15:49.972Z,14.6429
2022-10-15T01:16:49.984Z,15.3571
2022-10-15T01:17:50.024Z,15.4286
2022-10-15T01:18:50.062Z,15.2143
2022-10-15T01:19:50.119Z,15.3571
2022-10-15T01:20:50.130Z,15.3571
2022-10-15T01:21:50.168Z,16
2022-10-15T01:22:50.227Z,15.8571
2022-10-15T01:23:50.229Z,15.1429
2022-10-15T01:24:50.264Z,14.4286
2022-10-15T01:25:50.296Z,15.3571
2022-10-15T01:26:50.331Z,14.9286
2022-10-15T01:27:50.384Z,16.1429
2022-10-15T01:28:50.471Z,15.3571
2022-10-15T01:29:50.432Z,15.1429
2022-10-15T01:30:50.460Z,15.8571
2022-10-15T01:31:50.496Z,15
2022-10-15T01:32:50.554Z,15.1429
2022-10-15T01:33:50.562Z,16.3571
2022-10-15T01:34:50.590Z,15.3571
2022-10-15T01:35:50.629Z,15.3571
2022-10-15T01:36:50.662Z,15.8571
2022-10-15T01:37:50.742Z,15.4286
2022-10-15T01:38:50.730Z,15.9286
2022-10-15T01:39:50.759Z,15.9286
2022-10-15T01:40:50.801Z,16.6429
2022-10-15T01:41:50.837Z,15.4286
2022-10-15T01:42:50.892Z,16.2143
2022-10-15T01:43:50.908Z,15.5
2022-10-15T01:44:50.946Z,15.4286
2022-10-15T01:45:51.002Z,15.7143
2022-10-15T01:46:51.024Z,15.1429
2022-10-15T01:47:51.051Z,14.9286
2022-10-15T01:48:51.089Z,16.1429
2022-10-15T01:49:51.121Z,15.9286
2022-10-15T01:50:51.186Z,15.5
2022-10-15T01:51:51.194Z,16.1429
2022-10-15T01:52:51.222Z,14.9286
2022-10-15T01:53:51.246Z,15.5
2022-10-15T01:54:51.278Z,16.5
2022-10-15T01:55:51.336Z,15.4286
2022-10-15T01:56:51.369Z,15.9286
2022-10-15T01:57:51.385Z,16.5
2022-10-15T01:58:51.421Z,16.1429
2022-10-15T01:59:51.461Z,16.6429
2022-10-15T02:00:51.520Z,15.7143
2022-10-15T02:01:52.553Z,16.2143
2022-10-15T02:02:51.554Z,15.6429
2022-10-15T02:03:51.580Z,15.2143
2022-10-15T02:04:51.619Z,15.4286
2022-10-15T02:05:51.643Z,16
2022-10-15T02:06:51.703Z,16.6429
2022-10-15T02:07:51.722Z,15.7143
2022-10-15T02:08:51.751Z,16.8571
2022-10-15T02:09:51.793Z,15.9286
2022-10-15T02:10:51.824Z,16
2022-10-15T02:11:51.879Z,16.3571
2022-10-15T02:12:51.892Z,15.9286
2022-10-15T02:13:51.923Z,16.3571
2022-10-15T02:14:51.951Z,16.2143
2022-10-15T02:15:51.989Z,16.6429
2022-10-15T02:16:52.039Z,16.2143
2022-10-15T02:17:52.074Z,16
2022-10-15T02:18:52.140Z,16.6429
2022-10-15T02:19:52.232Z,15.8571
2022-10-15T02:20:52.154Z,15.3571
2022-10-15T02:21:52.185Z,16.1429
2022-10-15T02:22:52.219Z,15.9286
2022-10-15T02:23:52.272Z,15.3571
2022-10-15T02:24:55.350Z,15.8571
2022-10-15T02:25:52.328Z,16.3571
2022-10-15T02:26:52.359Z,16.3571
2022-10-15T02:27:52.413Z,16
2022-10-15T02:28:52.486Z,15.8571
2022-10-15T02:29:52.451Z,16.1429
2022-10-15T02:30:52.488Z,15.6429
2022-10-15T02:31:52.516Z,16.4286
2022-10-15T02:32:52.570Z,16.1429
2022-10-15T02:33:52.581Z,16.9286
2022-10-15T02:34:52.633Z,15.9286
2022-10-15T02:35:52.644Z,16.8571
2022-10-15T02:36:52.680Z,16.1429
2022-10-15T02:37:52.732Z,15.5
2022-10-15T02:38:52.743Z,16.1429
2022-10-15T02:39:52.773Z,16.6429
2022-10-15T02:40:52.826Z,15.7143
2022-10-15T02:41:52.845Z,17.1429
2022-10-15T02:42:52.885Z,16.2143
2022-10-15T02:43:52.922Z,16.6429
2022-10-15T02:44:52.979Z,16
2022-10-15T02:45:53.002Z,16.6429
2022-10-15T02:46:53.063Z,16.9286
2022-10-15T02:47:53.091Z,15.9286
2022-10-15T02:48:53.113Z,16.4286
2022-10-15T02:49:53.162Z,15.4286
2022-10-15T02:50:53.177Z,16.5
2022-10-15T02:51:53.212Z,16.9286
2022-10-15T02:52:53.247Z,15.9286
2022-10-15T02:53:53.304Z,16.8571
2022-10-15T02:54:53.313Z,16.3571
2022-10-15T02:55:53.350Z,15.7143
2022-10-15T02:56:53.387Z,17.8571
2022-10-15T02:57:53.418Z,16.6429
2022-10-15T02:58:53.474Z,16
2022-10-15T02:59:53.496Z,16.2143
2022-10-15T03:00:53.549Z,15.6429
2022-10-15T03:01:53.577Z,15.5
2022-10-15T03:02:53.600Z,16.1429
2022-10-15T03:03:53.610Z,16.6429
2022-10-15T03:04:53.653Z,16.3571
2022-10-15T03:05:53.702Z,15.9286
2022-10-15T03:06:53.705Z,15.9286
2022-10-15T03:07:53.745Z,16.5
2022-10-15T03:08:53.777Z,16.4286
2022-10-15T03:09:53.801Z,17.7143
2022-10-15T03:10:53.862Z,17.6429
2022-10-15T03:11:53.873Z,16.3571
2022-10-15T03:12:53.904Z,16.6429
2022-10-15T03:13:53.941Z,17.1429
2022-10-15T03:14:53.979Z,16.4286
2022-10-15T03:15:54.031Z,16.7143
2022-10-15T03:16:54.047Z,15.8571
2022-10-15T03:17:54.080Z,16.5
2022-10-15T03:18:54.117Z,16.3571
2022-10-15T03:19:54.160Z,16.2143
2022-10-15T03:20:54.204Z,15.9286
2022-10-15T03:21:54.222Z,16.6429
2022-10-15T03:22:54.246Z,15.3571
2022-10-15T03:23:54.283Z,16.3571
2022-10-15T03:24:54.311Z,15.9286
2022-10-15T03:25:54.361Z,16.7143
2022-10-15T03:26:54.381Z,15.8571
2022-10-15T03:27:54.414Z,16.3571
2022-10-15T03:28:54.501Z,15.2143
2022-10-15T03:29:54.483Z,15.8571
2022-10-15T03:30:54.502Z,15.6429
2022-10-15T03:31:54.527Z,15.4286
2022-10-15T03:32:54.563Z,15.4286
2022-10-15T03:33:54.600Z,15.4286
2022-10-15T03:34:54.659Z,16.6429
2022-10-15T03:35:54.661Z,16.5
2022-10-15T03:36:54.690Z,16.9286
2022-10-15T03:37:54.725Z,16
2022-10-15T03:38:54.759Z,15.5
2022-10-15T03:39:54.806Z,15.9286
2022-10-15T03:40:54.821Z,16.5
2022-10-15T03:41:54.875Z,15.9286
2022-10-15T03:42:54.886Z,16.3571
2022-10-15T03:43:54.917Z,16.5
2022-10-15T03:44:54.957Z,15.4286
2022-10-15T03:45:55.001Z,15.2143
2022-10-15T03:46:55.049Z,16.5
2022-10-15T03:47:55.080Z,15.8571
2022-10-15T03:48:55.094Z,15.5
2022-10-15T03:49:55.139Z,15.5
2022-10-15T03:50:55.178Z,15.7143
2022-10-15T03:51:55.201Z,15.7143
2022-10-15T03:52:55.232Z,15.5
2022-10-15T03:53:55.263Z,15.8571
2022-10-15T03:54:55.313Z,14.6429
2022-10-15T03:55:55.321Z,15.6429
2022-10-15T03:56:55.363Z,15.8571
2022-10-15T03:57:55.382Z,16
2022-10-15T03:58:55.404Z,15.1429
2022-10-15T03:59:55.444Z,15.5
2022-10-15T04:00:55.563Z,15
2022-10-15T04:01:55.526Z,15
2022-10-15T04:02:55.541Z,15.5
2022-10-15T04:03:55.569Z,15.2143
2022-10-15T04:04:55.590Z,14.8571
2022-10-15T04:05:56.747Z,15.7143
2022-10-15T04:06:55.670Z,16.2143
2022-10-15T04:07:55.689Z,15.1429
2022-10-15T04:08:55.723Z,15.1429
2022-10-15T04:09:55.763Z,14.7143
2022-10-15T04:10:55.781Z,14.2143
2022-10-15T04:11:55.837Z,15.1429
2022-10-15T04:12:55.846Z,15.3571
2022-10-15T04:13:55.882Z,15
2022-10-15T04:14:55.920Z,14
2022-10-15T04:15:55.949Z,16.4286
2022-10-15T04:16:55.997Z,15
2022-10-15T04:17:56.013Z,14.4286
2022-10-15T04:18:56.043Z,14.3571
2022-10-15T04:19:56.077Z,14.7143
2022-10-15T04:20:56.114Z,15.5
2022-10-15T04:21:56.152Z,15.2143
2022-10-15T04:22:56.191Z,14.5
2022-10-15T04:23:56.220Z,15.6429
2022-10-15T04:24:56.278Z,15.3571
2022-10-15T04:25:56.293Z,15.7143
2022-10-15T04:26:56.314Z,15.6429
2022-10-15T04:27:56.356Z,14.6429
2022-10-15T04:28:56.441Z,15.5
2022-10-15T04:29:56.433Z,15.1429
2022-10-15T04:30:56.450Z,14.4286
2022-10-15T04:31:56.484Z,15.1429
2022-10-15T04:32:56.516Z,15.2143
2022-10-15T04:33:56.568Z,14.1429
2022-10-15T04:34:56.578Z,14.3571
2022-10-15T04:35:56.632Z,15.4286
2022-10-15T04:36:56.643Z,15.6429
2022-10-15T04:37:56.681Z,15.1429
2022-10-15T04:38:56.715Z,14.9286
2022-10-15T04:39:56.753Z,15.5
2022-10-15T04:40:56.782Z,15.7143
2022-10-15T04:41:56.806Z,14.7143
2022-10-15T04:42:56.845Z,16
2022-10-15T04:43:56.905Z,15.2143
2022-10-15T04:44:56.918Z,15.7143
2022-10-15T04:45:56.953Z,16
2022-10-15T04:46:56.984Z,16
2022-10-15T04:47:57.026Z,15.3571
2022-10-15T04:48:57.046Z,15.1429
2022-10-15T04:49:57.076Z,16.1429
2022-10-15T04:50:57.103Z,15.3571
2022-10-15T04:51:57.130Z,15.6429
2022-10-15T04:52:57.160Z,14.7143
2022-10-15T04:53:57.191Z,15
2022-10-15T04:54:57.242Z,15.6429
2022-10-15T04:55:57.250Z,13.5
2022-10-15T04:56:57.280Z,15
2022-10-15T04:57:57.315Z,15.5
2022-10-15T04:58:57.367Z,15.3571
2022-10-15T04:59:57.980Z,14.4286
2022-10-15T05:00:57.417Z,14.4286
2022-10-15T05:01:57.542Z,15.1429
2022-10-15T05:02:57.485Z,15.6429
2022-10-15T05:03:57.542Z,15.5
2022-10-15T05:04:57.551Z,14.7143
2022-10-15T05:05:57.596Z,14.7143
2022-10-15T05:06:57.613Z,14
2022-10-15T05:07:57.644Z,14.4286
2022-10-15T05:08:57.678Z,14.2143
2022-10-15T05:09:57.710Z,14.1429
2022-10-15T05:10:57.752Z,14.2143
2022-10-15T05:11:57.783Z,14.9286
2022-10-15T05:12:57.819Z,14.2143
2022-10-15T05:13:57.864Z,14.6429
2022-10-15T05:14:57.916Z,14.9286
2022-10-15T05:15:57.928Z,15.4286
2022-10-15T05:16:57.959Z,15.1429
2022-10-15T05:17:57.994Z,14
2022-10-15T05:18:58.026Z,15.2143
2022-10-15T05:19:58.064Z,14.9286
2022-10-15T05:20:58.105Z,14.2143
2022-10-15T05:21:58.123Z,15.7143
2022-10-15T05:22:58.150Z,16.7143
2022-10-15T05:23:58.209Z,15.6429
2022-10-15T05:24:58.221Z,14.5
2022-10-15T05:25:58.256Z,15.7143
2022-10-15T05:26:58.366Z,14.8571
2022-10-15T05:27:58.327Z,16.1429
2022-10-15T05:28:58.459Z,15.8571
2022-10-15T05:29:58.389Z,15.2143
2022-10-15T05:30:58.424Z,14.6429
2022-10-15T05:31:58.455Z,14.3571
2022-10-15T05:32:58.504Z,15.5
2022-10-15T05:33:58.514Z,15.3571
2022-10-15T05:34:58.547Z,14.7143
2022-10-15T05:35:58.578Z,14.2143
2022-10-15T05:36:58.643Z,15.2143
2022-10-15T05:37:58.658Z,15.1429
2022-10-15T05:38:58.801Z,15.2143
2022-10-15T05:39:58.743Z,15.2143
2022-10-15T05:40:58.761Z,14.8571
2022-10-15T05:41:58.812Z,14.5
2022-10-15T05:42:58.828Z,15.3571
2022-10-15T05:43:58.859Z,14.8571
2022-10-15T05:44:58.888Z,14.5
2022-10-15T05:45:58.932Z,14.4286
2022-10-15T05:46:58.969Z,14.9286
2022-10-15T05:47:59.004Z,14.5
2022-10-15T05:48:59.043Z,15.8571
2022-10-15T05:49:59.065Z,14.6429
2022-10-15T05:50:59.105Z,14.7143
2022-10-15T05:51:59.149Z,13.2143
2022-10-15T05:52:59.176Z,14.2143
2022-10-15T05:53:59.226Z,13.3571
2022-10-15T05:54:59.237Z,13.9286
2022-10-15T05:55:59.272Z,13.5
2022-10-15T05:56:59.303Z,14.3571
2022-10-15T05:57:59.359Z,13.8571
2022-10-15T05:58:59.404Z,14.1429
2022-10-15T05:59:59.412Z,13
2022-10-15T06:00:59.444Z,13.2143
2022-10-15T06:01:59.517Z,13.4286
2022-10-15T06:02:59.510Z,14.2143
2022-10-15T06:03:59.556Z,14.3571
2022-10-15T06:04:59.578Z,13.9286
2022-10-15T06:05:59.628Z,13.8571
2022-10-15T06:06:59.642Z,13.7143
2022-10-15T06:07:59.677Z,13.6429
2022-10-15T06:08:59.710Z,13.5
2022-10-15T06:09:59.762Z,13.5
2022-10-15T06:11:00.582Z,13.5
2022-10-15T06:11:59.807Z,12.9286
2022-10-15T06:12:59.839Z,13.9286
2022-10-15T06:13:59.873Z,13.6429
2022-10-15T06:14:59.898Z,13.5
2022-10-15T06:15:59.951Z,13
2022-10-15T06:16:59.992Z,13.4286
2022-10-15T06:18:00.001Z,12.9286
2022-10-15T06:19:00.034Z,13.1429
2022-10-15T06:20:00.076Z,13.3571
2022-10-15T06:21:00.110Z,13.3571
2022-10-15T06:22:00.137Z,13
2022-10-15T06:23:00.178Z,13.4286
2022-10-15T06:24:00.198Z,12.9286
2022-10-15T06:25:00.222Z,13.5
2022-10-15T06:26:00.273Z,13.5
2022-10-15T06:27:00.290Z,13.4286
2022-10-15T06:28:00.318Z,13.5
2022-10-15T06:29:00.442Z,13.9286
2022-10-15T06:30:00.408Z,13.8571
2022-10-15T06:31:00.420Z,14.8571
2022-10-15T06:32:00.450Z,13.1429
2022-10-15T06:33:00.628Z,13.6429
2022-10-15T06:34:00.517Z,13.4286
2022-10-15T06:35:00.551Z,13.5
2022-10-15T06:36:00.584Z,13.9286
2022-10-15T06:37:00.620Z,14.6429
2022-10-15T06:38:03.042Z,12.8571
2022-10-15T06:39:00.682Z,13.1429
2022-10-15T06:40:00.716Z,13.1429
2022-10-15T06:41:00.754Z,13.5
2022-10-15T06:42:00.780Z,14.1429
2022-10-15T06:43:00.812Z,13.6429
2022-10-15T06:44:00.842Z,14.6429
2022-10-15T06:45:00.873Z,14
2022-10-15T06:46:00.910Z,14.5
2022-10-15T06:47:00.968Z,13.8571
2022-10-15T06:48:00.986Z,14.5
2022-10-15T06:49:01.013Z,13.9286
2022-10-15T06:50:01.049Z,13.3571
2022-10-15T06:51:01.099Z,13.7143
2022-10-15T06:52:03.729Z,13.8571
2022-10-15T06:53:01.144Z,14.1429
2022-10-15T06:54:01.166Z,13.5
2022-10-15T06:55:01.219Z,13.4286
2022-10-15T06:56:01.251Z,13.7143
2022-10-15T06:57:01.254Z,14.5
2022-10-15T06:58:01.305Z,14
2022-10-15T06:59:01.322Z,13.7143
2022-10-15T07:00:01.360Z,14
2022-10-15T07:01:01.409Z,13.9286
2022-10-15T07:02:01.425Z,14.8571
2022-10-15T07:03:01.454Z,14
2022-10-15T07:04:01.486Z,14.1429
2022-10-15T07:05:01.511Z,14.1429
2022-10-15T07:06:01.554Z,14.4286
2022-10-15T07:07:01.570Z,14.6429
2022-10-15T07:08:01.601Z,14.2143
2022-10-15T07:09:01.631Z,14.1429
2022-10-15T07:10:01.687Z,14.5
2022-10-15T07:11:01.704Z,14.2143
2022-10-15T07:12:01.734Z,13
2022-10-15T07:13:01.790Z,14
2022-10-15T07:14:01.797Z,14.1429
2022-10-15T07:15:01.842Z,13.3571
2022-10-15T07:16:01.893Z,14.6429
2022-10-15T07:17:01.903Z,13.8571
2022-10-15T07:18:01.952Z,14.4286
2022-10-15T07:19:01.972Z,13.7143
2022-10-15T07:20:02.003Z,13.8571
2022-10-15T07:21:02.087Z,13.3571
2022-10-15T07:22:02.096Z,13.5
2022-10-15T07:23:02.116Z,13.9286
2022-10-15T07:24:02.165Z,14.1429
2022-10-15T07:25:02.166Z,13.4286
2022-10-15T07:26:02.202Z,14.1429
2022-10-15T07:27:08.093Z,13.8571
2022-10-15T07:28:02.269Z,12.9286
2022-10-15T07:29:02.409Z,13.4286
2022-10-15T07:30:02.348Z,14.1429
2022-10-15T07:31:02.364Z,13.9286
2022-10-15T07:32:02.419Z,14.3571
2022-10-15T07:33:02.424Z,12.9286
2022-10-15T07:34:02.462Z,13.8571
2022-10-15T07:35:02.504Z,14.3571
2022-10-15T07:36:02.515Z,13.4286
2022-10-15T07:37:02.549Z,13.8571
2022-10-15T07:38:02.582Z,14.2143
2022-10-15T07:39:02.612Z,13.8571
2022-10-15T07:40:02.667Z,13.9286
2022-10-15T07:41:02.679Z,13.6429
2022-10-15T07:42:02.752Z,13.9286
2022-10-15T07:43:02.755Z,14.2143
2022-10-15T07:44:02.791Z,13.2143
2022-10-15T07:45:02.835Z,14.4286
2022-10-15T07:46:02.868Z,14.2143
2022-10-15T07:47:02.896Z,15.3571
2022-10-15T07:48:02.952Z,14.3571
2022-10-15T07:49:02.960Z,13.2143
2022-10-15T07:50:02.994Z,13.1429
2022-10-15T07:51:03.095Z,13.3571
2022-10-15T07:52:03.064Z,13.5
2022-10-15T07:53:03.100Z,13.4286
2022-10-15T07:54:03.131Z,12.6429
2022-10-15T07:55:03.161Z,12.7143
2022-10-15T07:56:03.193Z,12.5
2022-10-15T07:57:03.221Z,13.6429
2022-10-15T07:58:03.267Z,12.1429
2022-10-15T07:59:03.289Z,11.7143
2022-10-15T08:00:03.315Z,12.1429
2022-10-15T08:01:03.366Z,11.8571
2022-10-15T08:02:03.382Z,11.6429
2022-10-15T08:03:03.422Z,11.6429
2022-10-15T08:04:03.428Z,12
2022-10-15T08:05:03.454Z,12
2022-10-15T08:06:03.507Z,12.9286
2022-10-15T08:07:05.807Z,11.9286
2022-10-15T08:08:03.541Z,12.5
2022-10-15T08:09:03.592Z,11.9286
2022-10-15T08:10:03.603Z,11.7143
2022-10-15T08:11:03.635Z,12
2022-10-15T08:12:03.657Z,12.2143
2022-10-15T08:13:03.701Z,11.4286
2022-10-15T08:14:03.778Z,12
2022-10-15T08:15:03.764Z,11.2143
2022-10-15T08:16:03.817Z,12.2143
2022-10-15T08:17:03.856Z,12
2022-10-15T08:18:03.890Z,12.5
2022-10-15T08:19:03.906Z,11.4286
2022-10-15T08:20:03.967Z,12.1429
2022-10-15T08:21:03.970Z,11.3571
2022-10-15T08:22:04.009Z,10.4286
2022-10-15T08:23:04.045Z,10.8571
2022-10-15T08:24:04.071Z,11.4286
2022-10-15T08:25:04.115Z,11.7143
2022-10-15T08:26:04.124Z,10.9286
2022-10-15T08:27:04.158Z,10.7143
2022-10-15T08:28:04.256Z,11.2143
2022-10-15T08:29:04.298Z,10.7143
2022-10-15T08:30:04.254Z,10.3571
2022-10-15T08:31:05.747Z,11.5
2022-10-15T08:32:04.337Z,10.2143
2022-10-15T08:33:04.368Z,10.7143
2022-10-15T08:34:04.387Z,10.7143
2022-10-15T08:35:04.422Z,11.8571
2022-10-15T08:36:04.448Z,14.7143
2022-10-15T08:37:04.609Z,13
2022-10-15T08:38:04.519Z,11.1429
2022-10-15T08:39:04.547Z,11.3571
2022-10-15T08:40:04.573Z,11.2143
2022-10-15T08:41:04.628Z,10.7143
2022-10-15T08:42:04.651Z,11.2143
2022-10-15T08:43:04.707Z,10.6429
2022-10-15T08:44:04.722Z,10.8571
2022-10-15T08:45:04.753Z,10.6429
2022-10-15T08:46:04.825Z,10.2143
2022-10-15T08:47:04.808Z,10.2143
2022-10-15T08:48:04.840Z,10.7143
2022-10-15T08:49:04.892Z,11
2022-10-15T08:50:04.919Z,10.9286
2022-10-15T08:51:04.939Z,11.2143
2022-10-15T08:52:04.968Z,10.6429
2022-10-15T08:53:05.001Z,10.8571
2022-10-15T08:54:05.032Z,10.8571
2022-10-15T08:55:05.084Z,12.3571
2022-10-15T08:56:05.105Z,10.9286
2022-10-15T08:57:05.135Z,10.9286
2022-10-15T08:58:05.155Z,10.9286
2022-10-15T08:59:05.183Z,9.71429
2022-10-15T09:00:05.232Z,11
2022-10-15T09:01:05.247Z,11.7143
2022-10-15T09:02:05.274Z,11.6429
2022-10-15T09:03:05.410Z,10.9286
2022-10-15T09:04:05.351Z,11.5
2022-10-15T09:05:05.407Z,11.5
2022-10-15T09:06:05.420Z,11.6429
2022-10-15T09:07:05.448Z,10.9286
2022-10-15T09:08:05.482Z,10.7143
2022-10-15T09:09:05.531Z,10.7143
2022-10-15T09:10:05.542Z,11.1429
2022-10-15T09:11:05.577Z,11.3571
2022-10-15T09:12:05.609Z,12.1429
2022-10-15T09:13:05.637Z,11.7143
2022-10-15T09:14:05.698Z,11.8571
2022-10-15T09:15:05.700Z,11.7143
2022-10-15T09:16:05.739Z,11.4286
2022-10-15T09:17:05.757Z,10.8571
2022-10-15T09:18:05.782Z,10.8571
2022-10-15T09:19:05.832Z,10.9286
2022-10-15T09:20:05.852Z,11.1429
2022-10-15T09:21:05.893Z,11.4286
2022-10-15T09:22:05.913Z,11.1429
2022-10-15T09:23:05.964Z,11.6429
2022-10-15T09:24:05.968Z,11.1429
2022-10-15T09:25:06.004Z,10.4286
2022-10-15T09:26:06.035Z,10.7143
2022-10-15T09:27:06.067Z,9.92857
2022-10-15T09:28:06.119Z,10.1429
2022-10-15T09:29:06.205Z,10.2143
2022-10-15T09:30:06.164Z,10.6429
2022-10-15T09:31:06.189Z,10.5
2022-10-15T09:32:06.216Z,10.1429
2022-10-15T09:33:06.250Z,10.3571
2022-10-15T09:34:06.278Z,10.2143
2022-10-15T09:35:06.305Z,10.3571
2022-10-15T09:36:06.335Z,10.4286
2022-10-15T09:37:06.364Z,10.4286
2022-10-15T09:38:06.392Z,9.71429
2022-10-15T09:39:06.429Z,9.92857
2022-10-15T09:40:06.440Z,10.5
2022-10-15T09:41:06.546Z,9.71429
2022-10-15T09:42:06.508Z,10.2143
2022-10-15T09:43:06.540Z,9.42857
2022-10-15T09:44:07.317Z,9.64286
2022-10-15T09:45:06.593Z,10.1429
2022-10-15T09:46:06.627Z,9.92857
2022-10-15T09:47:06.654Z,10.1429
2022-10-15T09:48:06.671Z,10.3571
2022-10-15T09:49:06.726Z,9.35714
2022-10-15T09:50:06.873Z,9.5
2022-10-15T09:51:06.773Z,10.1429
2022-10-15T09:52:06.804Z,9.21429
2022-10-15T09:53:06.861Z,9.71429
2022-10-15T09:54:06.879Z,9.42857
2022-10-15T09:55:06.926Z,9.71429
2022-10-15T09:56:06.952Z,9.35714
2022-10-15T09:57:06.965Z,9.71429
2022-10-15T09:58:07.023Z,9.85714
2022-10-15T09:59:09.522Z,10.1429
2022-10-15T10:00:07.059Z,9.64286
2022-10-15T10:01:07.089Z,8.92857
2022-10-15T10:02:07.172Z,9.21429
2022-10-15T10:03:07.187Z,9.42857
2022-10-15T10:04:07.192Z,9.64286
2022-10-15T10:05:08.734Z,9.35714
2022-10-15T10:06:07.251Z,9.14286
2022-10-15T10:07:07.268Z,9.5
2022-10-15T10:08:07.317Z,9.35714
2022-10-15T10:09:07.335Z,8.71429
2022-10-15T10:10:07.369Z,9.71429
2022-10-15T10:11:07.404Z,10
2022-10-15T10:12:07.428Z,9
2022-10-15T10:13:07.485Z,9.71429
2022-10-15T10:14:07.492Z,9.21429
2022-10-15T10:15:07.521Z,10.2143
2022-10-15T10:16:07.541Z,9.42857
2022-10-15T10:17:07.590Z,9.14286
2022-10-15T10:18:07.602Z,9.92857
2022-10-15T10:19:07.630Z,10.1429
2022-10-15T10:20:07.686Z,9.92857
2022-10-15T10:21:07.717Z,9.92857
2022-10-15T10:22:07.731Z,9.35714
2022-10-15T10:23:07.768Z,8.71429
2022-10-15T10:24:07.797Z,9.21429
2022-10-15T10:25:07.832Z,9.14286
2022-10-15T10:26:07.939Z,10
2022-10-15T10:27:07.916Z,9.35714
2022-10-15T10:28:07.915Z,9
2022-10-15T10:29:15.902Z,9.21429
2022-10-15T10:30:07.979Z,9.21429
2022-10-15T10:31:08.088Z,9.14286
2022-10-15T10:32:08.044Z,9
2022-10-15T10:33:08.069Z,9.42857
2022-10-15T10:34:08.102Z,8.14286
2022-10-15T10:35:08.128Z,9.21429
2022-10-15T10:37:08.205Z,10
2022-10-15T10:38:08.243Z,9.14286
2022-10-15T10:39:08.271Z,10
2022-10-15T10:40:08.301Z,10
2022-10-15T10:41:08.355Z,9.85714
2022-10-15T10:42:08.382Z,9.71429
2022-10-15T10:43:08.396Z,10.4286
2022-10-15T10:44:08.422Z,10.4286
2022-10-15T10:45:08.512Z,10
2022-10-15T10:46:08.489Z,11.1429
2022-10-15T10:47:08.540Z,10.6429
2022-10-15T10:48:08.542Z,9.92857
2022-10-15T10:49:08.569Z,9.71429
2022-10-15T10:50:08.602Z,10.7143
2022-10-15T10:51:09.526Z,10.6429
2022-10-15T10:52:08.683Z,10.8571
2022-10-15T10:53:08.685Z,10.8571
2022-10-15T10:54:08.720Z,11.4286
2022-10-15T10:55:08.754Z,11.2143
2022-10-15T10:56:08.780Z,11.4286
2022-10-15T10:57:08.824Z,10.3571
2022-10-15T10:58:08.838Z,10.2143
2022-10-15T10:59:08.863Z,10.5
2022-10-15T11:00:08.911Z,10.7143
2022-10-15T11:01:09.015Z,10.8571
2022-10-15T11:02:08.937Z,10.2143
2022-10-15T11:03:08.973Z,10.4286
2022-10-15T11:04:10.312Z,10.8571
2022-10-15T11:05:09.058Z,10.4286
2022-10-15T11:06:09.073Z,11.5
2022-10-15T11:07:09.115Z,11.1429
2022-10-15T11:08:09.158Z,11.8571
2022-10-15T11:09:09.176Z,10.8571
2022-10-15T11:10:09.205Z,11.2143
2022-10-15T11:11:09.236Z,11
2022-10-15T11:12:09.279Z,10.1429
2022-10-15T11:14:09.320Z,11.2143
2022-10-15T11:15:09.355Z,10.4286
2022-10-15T11:16:09.381Z,12
2022-10-15T11:17:09.406Z,11.5
2022-10-15T11:18:09.469Z,11.1429
2022-10-15T11:19:18.666Z,11.2143
2022-10-15T11:20:42.297Z,9.92857
2022-10-15T11:21:09.522Z,10.5
2022-10-15T11:22:09.708Z,10.2143
2022-10-15T11:23:09.612Z,11.5
2022-10-15T11:24:09.629Z,11.2143
2022-10-15T11:25:09.643Z,10.9286
2022-10-15T11:26:09.685Z,10.9286
2022-10-15T11:27:11.508Z,9.71429
2022-10-15T11:28:09.740Z,10.5
2022-10-15T11:29:09.792Z,11
2022-10-15T11:30:09.826Z,10.8571
2022-10-15T11:31:09.928Z,9.92857
2022-10-15T11:32:15.110Z,10
2022-10-15T11:33:10.232Z,9.42857
2022-10-15T11:34:09.940Z,10.3571
2022-10-15T11:35:09.993Z,9.64286
2022-10-15T11:36:10.027Z,10.4286
2022-10-15T11:37:10.024Z,10.4286
2022-10-15T11:38:10.056Z,10
2022-10-15T11:39:10.086Z,10.6429
2022-10-15T11:40:10.115Z,10.4286
2022-10-15T11:41:10.171Z,9.85714
2022-10-15T11:42:10.184Z,9.92857
2022-10-15T11:43:10.236Z,10
2022-10-15T11:44:10.250Z,10
2022-10-15T11:45:10.284Z,10
2022-10-15T11:46:10.324Z,10.5
2022-10-15T11:47:10.357Z,10.8571
2022-10-15T11:48:10.405Z,10.6429
2022-10-15T11:49:10.414Z,10.3571
2022-10-15T11:50:10.445Z,10
2022-10-15T11:51:10.468Z,9.35714
2022-10-15T11:52:10.492Z,9.21429
2022-10-15T11:53:10.536Z,8.71429
2022-10-15T11:54:10.553Z,9.21429
2022-10-15T11:55:10.583Z,9
2022-10-15T11:56:10.617Z,9
2022-10-15T11:57:10.640Z,9.14286
2022-10-15T11:58:10.712Z,8.5
2022-10-15T11:59:10.708Z,8.14286
2022-10-15T12:00:10.732Z,8.85714
2022-10-15T12:01:10.767Z,9.21429
2022-10-15T12:02:10.806Z,9
2022-10-15T12:03:10.909Z,8.14286
2022-10-15T12:04:10.930Z,8.92857
2022-10-15T12:05:10.904Z,8
2022-10-15T12:06:10.935Z,8.35714
2022-10-15T12:07:10.996Z,8.14286
2022-10-15T12:08:11.007Z,8.21429
2022-10-15T12:09:11.034Z,8.21429
2022-10-15T12:10:11.058Z,7.14286
2022-10-15T12:11:11.089Z,6.92857
2022-10-15T12:12:11.139Z,8.14286
2022-10-15T12:13:11.149Z,7.85714
2022-10-15T12:14:11.180Z,7.21429
2022-10-15T12:15:11.236Z,7.21429
2022-10-15T12:16:11.250Z,7.42857
2022-10-15T12:17:11.318Z,7.35714
2022-10-15T12:18:11.336Z,7.21429
2022-10-15T12:19:11.368Z,7.21429
2022-10-15T12:20:11.383Z,6.71429
2022-10-15T12:21:11.440Z,7.42857
2022-10-15T12:22:11.463Z,6.5
2022-10-15T12:23:11.474Z,6.92857
2022-10-15T12:24:11.501Z,6.42857
2022-10-15T12:25:11.536Z,6
2022-10-15T12:26:11.610Z,6